createdAt,value
2023-05-04T03:57:46.229Z,101005.53
2023-05-04T04:00:48.823Z,101005.53
2023-05-04T04:03:51.475Z,101009.87
2023-05-04T04:06:54.082Z,101009.53
2023-05-04T04:09:56.618Z,101013.25
2023-05-04T04:12:58.816Z,101009.38
2023-05-04T04:16:01.357Z,101012.44
2023-05-04T04:19:03.519Z,101008.16
2023-05-04T04:22:05.965Z,101009.53
2023-05-04T04:25:08.897Z,101013.25
2023-05-04T04:28:11.487Z,101014.47
2023-05-04T04:31:13.656Z,101013.69
2023-05-04T04:34:16.250Z,101018.28
2023-05-04T04:37:18.432Z,101006.37
2023-05-04T04:40:22.465Z,101023.31
2023-05-04T04:43:24.669Z,101021.78
2023-05-04T04:46:27.957Z,101026.22
2023-05-04T04:49:30.118Z,101020.88
2023-05-04T04:52:33.470Z,101023.78
2023-05-04T04:55:35.593Z,101026.94
2023-05-04T04:58:38.034Z,101030.25
2023-05-04T05:01:42.668Z,101033.75
2023-05-04T05:04:45.111Z,101033.84
2023-05-04T05:07:47.628Z,101035.66
2023-05-04T05:10:50.052Z,101034.69
2023-05-04T05:13:52.187Z,101033.50
2023-05-04T05:16:54.698Z,101026.41
2023-05-04T05:19:56.971Z,101034.53
2023-05-04T05:22:59.607Z,101029.50
2023-05-04T05:26:03.350Z,101029.38
2023-05-04T05:29:05.940Z,101031.59
2023-05-04T05:32:08.046Z,101028.00
2023-05-04T05:35:10.559Z,101029.19
2023-05-04T05:38:12.757Z,101030.41
2023-05-04T05:41:15.360Z,101037.91
2023-05-04T05:44:17.501Z,101038.59
2023-05-04T05:47:20.041Z,101038.00
2023-05-04T05:50:23.443Z,101045.72
2023-05-04T05:53:26.231Z,101041.19
2023-05-04T05:56:28.356Z,101044.00
2023-05-04T05:59:30.725Z,101040.19
2023-05-04T06:02:32.888Z,101049.63
2023-05-04T06:05:35.335Z,101039.31
2023-05-04T06:08:37.629Z,101050.00
2023-05-04T06:11:40.063Z,101052.62
2023-05-04T06:14:42.227Z,101047.63
2023-05-04T06:17:44.743Z,101052.94
2023-05-04T06:20:46.883Z,101042.72
2023-05-04T06:23:49.228Z,101057.44
2023-05-04T06:26:51.469Z,101048.13
2023-05-04T06:29:53.883Z,101051.81
2023-05-04T06:32:56.016Z,101058.72
2023-05-04T06:35:58.457Z,101058.78
2023-05-04T06:39:00.535Z,101062.91
2023-05-04T06:42:03.438Z,101068.81
2023-05-04T06:45:10.423Z,101058.38
2023-05-04T06:48:13.805Z,101051.72
2023-05-04T06:51:16.250Z,101061.94
2023-05-04T06:54:18.674Z,101064.84
2023-05-04T06:57:20.807Z,101062.03
2023-05-04T07:00:23.770Z,101073.56
2023-05-04T07:03:26.888Z,101071.66
2023-05-04T07:06:29.762Z,101077.22
2023-05-04T07:09:32.112Z,101065.91
2023-05-04T07:12:34.633Z,101069.66
2023-05-04T07:15:37.054Z,101068.63
2023-05-04T07:18:40.328Z,101068.09
2023-05-04T07:21:42.712Z,101061.22
2023-05-04T07:24:45.088Z,101066.34
2023-05-04T07:27:49.404Z,101068.16
2023-05-04T07:30:54.505Z,101073.16
2023-05-04T07:33:57.147Z,101066.69
2023-05-04T07:36:59.525Z,101066.56
2023-05-04T07:40:02.936Z,101069.53
2023-05-04T07:43:05.731Z,101070.69
2023-05-04T07:46:09.397Z,101072.16
2023-05-04T07:49:13.512Z,101072.69
2023-05-04T07:52:16.443Z,101074.84
2023-05-04T07:55:19.063Z,101071.59
2023-05-04T07:58:21.308Z,101071.19
2023-05-04T08:01:24.637Z,101075.19
2023-05-04T08:04:27.483Z,101071.25
2023-05-04T08:07:29.575Z,101070.25
2023-05-04T08:10:36.633Z,101073.97
2023-05-04T08:13:39.838Z,101069.00
2023-05-04T08:16:42.316Z,101070.03
2023-05-04T08:19:44.543Z,101068.19
2023-05-04T08:22:48.914Z,101075.03
2023-05-04T08:25:52.365Z,101074.25
2023-05-04T08:29:06.011Z,101077.50
2023-05-04T08:32:09.337Z,101084.91
2023-05-04T08:35:11.869Z,101080.00
2023-05-04T08:38:14.043Z,101084.06
2023-05-04T08:41:16.661Z,101085.69
2023-05-04T08:44:19.581Z,101082.53
2023-05-04T08:47:22.232Z,101078.19
2023-05-04T08:50:24.824Z,101079.47
2023-05-04T08:53:28.067Z,101080.09
2023-05-04T08:56:30.622Z,101076.91
2023-05-04T08:59:33.443Z,101069.75
2023-05-04T09:02:37.335Z,101071.22
2023-05-04T09:05:42.601Z,101076.31
2023-05-04T09:08:44.788Z,101080.03
2023-05-04T09:11:47.890Z,101073.16
2023-05-04T09:14:50.436Z,101075.69
2023-05-04T09:18:05.430Z,101078.56
2023-05-04T09:21:07.889Z,101075.84
2023-05-04T09:24:12.472Z,101072.22
2023-05-04T09:27:16.251Z,101069.69
2023-05-04T09:30:21.136Z,101062.34
2023-05-04T09:33:27.386Z,101075.13
2023-05-04T09:36:29.817Z,101071.44
2023-05-04T09:39:31.946Z,101063.13
2023-05-04T09:42:34.363Z,101063.28
2023-05-04T09:45:44.606Z,101051.63
2023-05-04T09:48:52.295Z,101058.16
2023-05-04T09:51:55.048Z,101054.31
2023-05-04T09:54:58.802Z,101045.06
2023-05-04T09:58:01.211Z,101036.72
2023-05-04T10:01:04.863Z,101038.44
2023-05-04T10:04:07.352Z,101041.47
2023-05-04T10:07:09.606Z,101034.09
2023-05-04T10:10:14.518Z,101029.13
2023-05-04T10:13:17.445Z,101022.25
2023-05-04T10:16:41.766Z,101017.47
2023-05-04T10:19:59.184Z,101015.56
2023-05-04T10:23:23.677Z,101017.84
2023-05-04T10:26:40.666Z,101021.84
2023-05-04T10:29:49.343Z,101010.19
2023-05-04T10:32:59.336Z,101009.38
2023-05-04T10:36:01.969Z,101003.59
2023-05-04T10:39:05.892Z,100999.75
2023-05-04T10:42:08.513Z,101006.44
2023-05-04T10:45:10.957Z,100998.47
2023-05-04T10:48:13.793Z,100997.38
2023-05-04T10:51:26.592Z,100999.16
2023-05-04T10:54:32.790Z,100997.53
2023-05-04T10:57:35.398Z,100993.16
2023-05-04T11:00:40.157Z,100987.22
2023-05-04T11:03:42.692Z,100983.16
2023-05-04T11:06:56.235Z,100978.19
2023-05-04T11:09:59.642Z,100968.53
2023-05-04T11:13:05.531Z,100968.53
2023-05-04T11:16:08.231Z,100967.59
2023-05-04T11:19:12.555Z,100965.91
2023-05-04T11:22:15.499Z,100964.47
2023-05-04T11:25:27.079Z,100956.53
2023-05-04T11:28:36.622Z,100961.66
2023-05-04T11:31:39.780Z,100958.16
2023-05-04T11:34:46.183Z,100954.28
2023-05-04T11:37:50.360Z,100946.41
2023-05-04T11:40:52.476Z,100940.75
2023-05-04T11:43:55.201Z,100945.56
2023-05-04T11:46:57.391Z,100942.84
2023-05-04T11:50:00.118Z,100937.50
2023-05-04T11:53:12.172Z,100942.94
2023-05-04T11:56:14.628Z,100941.31
2023-05-04T11:59:16.924Z,100942.84
2023-05-04T12:02:20.377Z,100940.44
2023-05-04T12:05:22.952Z,100934.03
2023-05-04T12:08:35.911Z,100932.31
2023-05-04T12:11:40.605Z,100934.91
2023-05-04T12:14:54.080Z,100929.91
2023-05-04T12:17:59.642Z,100936.03
2023-05-04T12:21:21.436Z,100929.13
2023-05-04T12:24:25.011Z,100922.84
2023-05-04T12:27:27.696Z,100915.72
2023-05-04T12:30:30.575Z,100910.00
2023-05-04T12:33:33.564Z,100910.97
2023-05-04T12:36:36.047Z,100905.22
2023-05-04T12:39:38.453Z,100909.75
2023-05-04T12:42:42.264Z,100906.44
2023-05-04T12:45:44.508Z,100913.53
2023-05-04T12:48:47.008Z,100906.78
2023-05-04T12:51:50.320Z,100895.34
2023-05-04T12:54:52.692Z,100907.06
2023-05-04T12:57:54.787Z,100913.53
2023-05-04T13:00:58.040Z,100904.25
2023-05-04T13:04:00.309Z,100898.37
2023-05-04T13:07:02.844Z,100900.97
2023-05-04T13:10:06.484Z,100885.69
2023-05-04T13:13:09.134Z,100901.84
2023-05-04T13:16:12.741Z,100899.97
2023-05-04T13:19:15.292Z,100895.78
2023-05-04T13:22:17.438Z,100894.31
2023-05-04T13:25:19.828Z,100896.53
2023-05-04T13:28:22.028Z,100888.69
2023-05-04T13:31:24.558Z,100887.38
2023-05-04T13:34:26.784Z,100887.66
2023-05-04T13:37:29.150Z,100870.69
2023-05-04T13:40:31.523Z,100873.22
2023-05-04T13:43:33.898Z,100872.50
2023-05-04T13:46:36.837Z,100865.56
2023-05-04T13:49:39.772Z,100860.03
2023-05-04T13:52:41.965Z,100855.91
2023-05-04T13:55:44.368Z,100855.50
2023-05-04T13:58:46.509Z,100862.75
2023-05-04T14:01:49.044Z,100856.22
2023-05-04T14:04:52.851Z,100856.03
2023-05-04T14:07:55.058Z,100860.69
2023-05-04T14:10:57.523Z,100859.56
2023-05-04T14:13:59.671Z,100850.00
2023-05-04T14:17:02.188Z,100849.75
2023-05-04T14:20:05.807Z,100851.53
2023-05-04T14:23:08.275Z,100847.25
2023-05-04T14:26:11.466Z,100848.03
2023-05-04T14:29:13.990Z,100851.81
2023-05-04T14:32:16.297Z,100852.59
2023-05-04T14:35:18.699Z,100848.53
2023-05-04T14:38:21.038Z,100836.44
2023-05-04T14:41:23.506Z,100837.22
2023-05-04T14:44:27.826Z,100839.63
2023-05-04T14:47:30.336Z,100838.03
2023-05-04T14:50:32.786Z,100833.72
2023-05-04T14:53:36.979Z,100829.84
2023-05-04T14:56:40.788Z,100836.50
2023-05-04T14:59:43.651Z,100835.06
2023-05-04T15:02:45.818Z,100827.78
2023-05-04T15:05:48.301Z,100830.37
2023-05-04T15:08:50.661Z,100833.47
